GRZ578 Details

Departure: (PAKN)
Arrival: (PABE)
Route: AKN J123 BET


Current Weather Information
PAKN 191554Z 34003KT 4SM BR CLR 04/02 A2996 RMK AO2 SLP146 T00440022
PABE 191553Z 02006KT 10SM CLR 10/07 A3005 RMK AO2 SLP176 T01000072